sensor_id;sensor_type;location;lat;lon;timestamp;P1;durP1;ratioP1;P2;durP2;ratioP2
1839;SDS011;920;48.944;9.148;2022-12-18T00:00:58;46.80;;;24.73;;
1839;SDS011;920;48.944;9.148;2022-12-18T00:03:25;65.00;;;31.73;;
1839;SDS011;920;48.944;9.148;2022-12-18T00:05:52;54.63;;;29.07;;
1839;SDS011;920;48.944;9.148;2022-12-18T00:08:22;59.83;;;31.03;;
1839;SDS011;920;48.944;9.148;2022-12-18T00:10:51;54.63;;;29.00;;
1839;SDS011;920;48.944;9.148;2022-12-18T00:13:17;69.93;;;34.27;;
1839;SDS011;920;48.944;9.148;2022-12-18T00:15:44;59.60;;;31.87;;
1839;SDS011;920;48.944;9.148;2022-12-18T00:18:13;61.73;;;31.70;;
1839;SDS011;920;48.944;9.148;2022-12-18T00:20:40;60.20;;;32.47;;
1839;SDS011;920;48.944;9.148;2022-12-18T00:23:06;61.77;;;34.30;;
1839;SDS011;920;48.944;9.148;2022-12-18T00:25:33;55.87;;;32.10;;
1839;SDS011;920;48.944;9.148;2022-12-18T00:28:02;64.90;;;33.27;;
1839;SDS011;920;48.944;9.148;2022-12-18T00:30:29;54.77;;;30.43;;
1839;SDS011;920;48.944;9.148;2022-12-18T00:32:57;50.63;;;28.33;;
1839;SDS011;920;48.944;9.148;2022-12-18T00:35:23;58.27;;;29.20;;
1839;SDS011;920;48.944;9.148;2022-12-18T00:37:50;55.40;;;26.90;;
1839;SDS011;920;48.944;9.148;2022-12-18T00:40:17;52.77;;;27.83;;
1839;SDS011;920;48.944;9.148;2022-12-18T00:42:43;50.70;;;27.47;;
1839;SDS011;920;48.944;9.148;2022-12-18T00:45:22;61.40;;;31.53;;
1839;SDS011;920;48.944;9.148;2022-12-18T00:47:50;55.13;;;28.00;;
1839;SDS011;920;48.944;9.148;2022-12-18T00:50:20;56.57;;;29.17;;
1839;SDS011;920;48.944;9.148;2022-12-18T00:52:47;54.50;;;27.53;;
1839;SDS011;920;48.944;9.148;2022-12-18T00:55:14;51.17;;;27.20;;
1839;SDS011;920;48.944;9.148;2022-12-18T00:57:41;47.00;;;25.70;;
1839;SDS011;920;48.944;9.148;2022-12-18T01:00:09;57.07;;;31.80;;
1839;SDS011;920;48.944;9.148;2022-12-18T01:02:38;57.27;;;29.87;;
1839;SDS011;920;48.944;9.148;2022-12-18T01:05:05;61.53;;;31.43;;
1839;SDS011;920;48.944;9.148;2022-12-18T01:07:34;56.53;;;31.33;;
1839;SDS011;920;48.944;9.148;2022-12-18T01:10:00;65.00;;;33.47;;
1839;SDS011;920;48.944;9.148;2022-12-18T01:12:27;50.43;;;27.70;;
1839;SDS011;920;48.944;9.148;2022-12-18T01:14:53;55.00;;;27.57;;
1839;SDS011;920;48.944;9.148;2022-12-18T01:17:21;60.10;;;31.00;;
1839;SDS011;920;48.944;9.148;2022-12-18T01:19:49;56.23;;;28.50;;
1839;SDS011;920;48.944;9.148;2022-12-18T01:22:15;57.03;;;31.47;;
1839;SDS011;920;48.944;9.148;2022-12-18T01:24:42;55.57;;;27.90;;
1839;SDS011;920;48.944;9.148;2022-12-18T01:27:08;49.07;;;27.93;;
1839;SDS011;920;48.944;9.148;2022-12-18T01:29:35;46.37;;;26.73;;
1839;SDS011;920;48.944;9.148;2022-12-18T01:32:02;51.07;;;28.27;;
1839;SDS011;920;48.944;9.148;2022-12-18T01:34:28;51.63;;;28.40;;
1839;SDS011;920;48.944;9.148;2022-12-18T01:36:56;61.37;;;32.03;;
1839;SDS011;920;48.944;9.148;2022-12-18T01:39:23;56.20;;;30.60;;
1839;SDS011;920;48.944;9.148;2022-12-18T01:41:52;57.90;;;29.20;;
1839;SDS011;920;48.944;9.148;2022-12-18T01:47:33;55.33;;;29.90;;
1839;SDS011;920;48.944;9.148;2022-12-18T01:50:03;57.20;;;28.63;;
1839;SDS011;920;48.944;9.148;2022-12-18T01:52:33;58.00;;;28.57;;
1839;SDS011;920;48.944;9.148;2022-12-18T01:54:59;51.73;;;26.77;;
1839;SDS011;920;48.944;9.148;2022-12-18T01:57:27;53.97;;;29.40;;
1839;SDS011;920;48.944;9.148;2022-12-18T01:59:55;52.27;;;26.80;;
1839;SDS011;920;48.944;9.148;2022-12-18T02:02:23;58.43;;;28.67;;
1839;SDS011;920;48.944;9.148;2022-12-18T02:04:50;49.70;;;27.40;;
1839;SDS011;920;48.944;9.148;2022-12-18T02:07:18;50.43;;;28.07;;
1839;SDS011;920;48.944;9.148;2022-12-18T02:09:53;51.90;;;27.13;;
1839;SDS011;920;48.944;9.148;2022-12-18T02:12:26;59.10;;;29.40;;
1839;SDS011;920;48.944;9.148;2022-12-18T02:14:57;66.63;;;31.80;;
1839;SDS011;920;48.944;9.148;2022-12-18T02:17:27;58.37;;;30.70;;
1839;SDS011;920;48.944;9.148;2022-12-18T02:20:01;50.23;;;26.70;;
1839;SDS011;920;48.944;9.148;2022-12-18T02:22:35;53.10;;;28.60;;
1839;SDS011;920;48.944;9.148;2022-12-18T02:25:12;54.10;;;29.30;;
1839;SDS011;920;48.944;9.148;2022-12-18T02:27:44;53.73;;;28.07;;
1839;SDS011;920;48.944;9.148;2022-12-18T02:30:11;54.57;;;28.10;;
1839;SDS011;920;48.944;9.148;2022-12-18T02:32:39;52.87;;;28.97;;
1839;SDS011;920;48.944;9.148;2022-12-18T02:35:23;57.37;;;29.40;;
1839;SDS011;920;48.944;9.148;2022-12-18T02:37:52;55.60;;;24.90;;
1839;SDS011;920;48.944;9.148;2022-12-18T02:40:19;56.47;;;28.37;;
1839;SDS011;920;48.944;9.148;2022-12-18T02:42:48;56.80;;;29.70;;
1839;SDS011;920;48.944;9.148;2022-12-18T02:45:15;57.67;;;28.70;;
1839;SDS011;920;48.944;9.148;2022-12-18T02:47:42;53.77;;;27.07;;
1839;SDS011;920;48.944;9.148;2022-12-18T02:50:11;57.10;;;31.07;;
1839;SDS011;920;48.944;9.148;2022-12-18T02:52:41;58.20;;;30.27;;
1839;SDS011;920;48.944;9.148;2022-12-18T02:55:17;61.40;;;28.83;;
1839;SDS011;920;48.944;9.148;2022-12-18T02:57:50;53.03;;;28.70;;
1839;SDS011;920;48.944;9.148;2022-12-18T03:00:21;59.40;;;28.70;;
1839;SDS011;920;48.944;9.148;2022-12-18T03:02:51;51.70;;;28.10;;
1839;SDS011;920;48.944;9.148;2022-12-18T03:05:21;57.80;;;28.43;;
1839;SDS011;920;48.944;9.148;2022-12-18T03:07:51;51.47;;;27.87;;
1839;SDS011;920;48.944;9.148;2022-12-18T03:10:21;61.80;;;29.83;;
1839;SDS011;920;48.944;9.148;2022-12-18T03:12:53;56.33;;;28.30;;
1839;SDS011;920;48.944;9.148;2022-12-18T03:15:24;53.00;;;29.07;;
1839;SDS011;920;48.944;9.148;2022-12-18T03:17:56;51.37;;;25.63;;
1839;SDS011;920;48.944;9.148;2022-12-18T03:20:25;50.77;;;26.33;;
1839;SDS011;920;48.944;9.148;2022-12-18T03:22:53;49.80;;;27.30;;
1839;SDS011;920;48.944;9.148;2022-12-18T03:25:23;48.27;;;25.63;;
1839;SDS011;920;48.944;9.148;2022-12-18T03:27:54;47.20;;;26.20;;
1839;SDS011;920;48.944;9.148;2022-12-18T03:30:22;50.30;;;24.77;;
1839;SDS011;920;48.944;9.148;2022-12-18T03:32:50;47.10;;;23.00;;
1839;SDS011;920;48.944;9.148;2022-12-18T03:35:21;45.00;;;23.10;;
1839;SDS011;920;48.944;9.148;2022-12-18T03:37:50;49.90;;;24.20;;
1839;SDS011;920;48.944;9.148;2022-12-18T03:40:16;53.90;;;26.37;;
1839;SDS011;920;48.944;9.148;2022-12-18T03:42:45;41.40;;;23.60;;
1839;SDS011;920;48.944;9.148;2022-12-18T03:45:17;46.00;;;25.43;;
1839;SDS011;920;48.944;9.148;2022-12-18T03:47:47;52.63;;;25.27;;
1839;SDS011;920;48.944;9.148;2022-12-18T03:50:19;56.93;;;28.40;;
1839;SDS011;920;48.944;9.148;2022-12-18T03:52:48;50.07;;;26.30;;
1839;SDS011;920;48.944;9.148;2022-12-18T03:55:16;54.57;;;27.97;;
1839;SDS011;920;48.944;9.148;2022-12-18T03:57:44;58.90;;;28.70;;
1839;SDS011;920;48.944;9.148;2022-12-18T04:00:12;46.30;;;26.67;;
1839;SDS011;920;48.944;9.148;2022-12-18T04:02:42;55.87;;;28.47;;
1839;SDS011;920;48.944;9.148;2022-12-18T04:05:11;47.17;;;23.93;;
1839;SDS011;920;48.944;9.148;2022-12-18T04:07:39;48.23;;;25.50;;
1839;SDS011;920;48.944;9.148;2022-12-18T04:10:07;48.27;;;24.97;;
1839;SDS011;920;48.944;9.148;2022-12-18T04:12:36;49.07;;;24.90;;
1839;SDS011;920;48.944;9.148;2022-12-18T04:15:04;50.07;;;23.53;;
1839;SDS011;920;48.944;9.148;2022-12-18T04:17:32;50.83;;;24.03;;
1839;SDS011;920;48.944;9.148;2022-12-18T04:19:59;47.90;;;24.77;;
1839;SDS011;920;48.944;9.148;2022-12-18T04:22:25;44.13;;;23.47;;
1839;SDS011;920;48.944;9.148;2022-12-18T04:24:52;51.03;;;25.13;;
1839;SDS011;920;48.944;9.148;2022-12-18T04:27:19;45.53;;;22.10;;
1839;SDS011;920;48.944;9.148;2022-12-18T04:29:45;42.80;;;22.80;;
1839;SDS011;920;48.944;9.148;2022-12-18T04:32:12;43.83;;;22.97;;
1839;SDS011;920;48.944;9.148;2022-12-18T04:34:40;41.23;;;20.97;;
1839;SDS011;920;48.944;9.148;2022-12-18T04:37:06;39.17;;;21.40;;
1839;SDS011;920;48.944;9.148;2022-12-18T04:39:33;41.27;;;21.47;;
1839;SDS011;920;48.944;9.148;2022-12-18T04:42:00;39.77;;;21.77;;
1839;SDS011;920;48.944;9.148;2022-12-18T04:44:27;41.30;;;21.57;;
1839;SDS011;920;48.944;9.148;2022-12-18T04:46:53;42.53;;;21.77;;
1839;SDS011;920;48.944;9.148;2022-12-18T04:49:20;42.80;;;21.80;;
1839;SDS011;920;48.944;9.148;2022-12-18T04:51:48;44.90;;;22.60;;
1839;SDS011;920;48.944;9.148;2022-12-18T04:54:15;39.00;;;21.23;;
1839;SDS011;920;48.944;9.148;2022-12-18T04:56:43;41.27;;;20.80;;
1839;SDS011;920;48.944;9.148;2022-12-18T04:59:10;44.50;;;23.30;;
1839;SDS011;920;48.944;9.148;2022-12-18T05:01:37;45.13;;;24.20;;
1839;SDS011;920;48.944;9.148;2022-12-18T05:04:03;50.60;;;25.20;;
1839;SDS011;920;48.944;9.148;2022-12-18T05:06:30;40.03;;;21.40;;
1839;SDS011;920;48.944;9.148;2022-12-18T05:08:58;46.63;;;23.20;;
1839;SDS011;920;48.944;9.148;2022-12-18T05:11:25;44.20;;;22.17;;
1839;SDS011;920;48.944;9.148;2022-12-18T05:13:51;42.30;;;23.17;;
1839;SDS011;920;48.944;9.148;2022-12-18T05:16:20;47.90;;;24.67;;
1839;SDS011;920;48.944;9.148;2022-12-18T05:18:47;40.77;;;24.00;;
1839;SDS011;920;48.944;9.148;2022-12-18T05:21:14;48.50;;;23.87;;
1839;SDS011;920;48.944;9.148;2022-12-18T05:23:40;49.43;;;24.83;;
1839;SDS011;920;48.944;9.148;2022-12-18T05:26:09;46.60;;;24.47;;
1839;SDS011;920;48.944;9.148;2022-12-18T05:28:40;53.00;;;23.90;;
1839;SDS011;920;48.944;9.148;2022-12-18T05:31:07;47.97;;;25.00;;
1839;SDS011;920;48.944;9.148;2022-12-18T05:33:34;44.43;;;23.00;;
1839;SDS011;920;48.944;9.148;2022-12-18T05:36:01;44.73;;;23.67;;
1839;SDS011;920;48.944;9.148;2022-12-18T05:38:29;45.00;;;22.07;;
1839;SDS011;920;48.944;9.148;2022-12-18T05:40:56;41.37;;;20.80;;
1839;SDS011;920;48.944;9.148;2022-12-18T05:43:24;41.27;;;20.70;;
1839;SDS011;920;48.944;9.148;2022-12-18T05:45:52;38.30;;;20.43;;
1839;SDS011;920;48.944;9.148;2022-12-18T05:48:19;36.00;;;19.80;;
1839;SDS011;920;48.944;9.148;2022-12-18T05:50:46;40.33;;;19.30;;
1839;SDS011;920;48.944;9.148;2022-12-18T05:53:14;40.73;;;22.33;;
1839;SDS011;920;48.944;9.148;2022-12-18T05:55:42;39.60;;;22.03;;
1839;SDS011;920;48.944;9.148;2022-12-18T05:58:10;37.83;;;20.87;;
1839;SDS011;920;48.944;9.148;2022-12-18T06:00:40;41.47;;;20.50;;
1839;SDS011;920;48.944;9.148;2022-12-18T06:03:08;38.47;;;19.90;;
1839;SDS011;920;48.944;9.148;2022-12-18T06:05:35;35.50;;;19.17;;
1839;SDS011;920;48.944;9.148;2022-12-18T06:08:02;45.00;;;23.03;;
1839;SDS011;920;48.944;9.148;2022-12-18T06:10:29;37.50;;;20.13;;
1839;SDS011;920;48.944;9.148;2022-12-18T06:12:57;40.10;;;20.60;;
1839;SDS011;920;48.944;9.148;2022-12-18T06:15:24;39.00;;;20.00;;
1839;SDS011;920;48.944;9.148;2022-12-18T06:17:52;37.90;;;20.97;;
1839;SDS011;920;48.944;9.148;2022-12-18T06:20:18;36.03;;;20.27;;
1839;SDS011;920;48.944;9.148;2022-12-18T06:22:45;35.73;;;19.77;;
1839;SDS011;920;48.944;9.148;2022-12-18T06:25:14;32.80;;;19.47;;
1839;SDS011;920;48.944;9.148;2022-12-18T06:27:41;37.03;;;19.07;;
1839;SDS011;920;48.944;9.148;2022-12-18T06:30:08;38.57;;;19.37;;
1839;SDS011;920;48.944;9.148;2022-12-18T06:32:43;41.63;;;19.60;;
1839;SDS011;920;48.944;9.148;2022-12-18T06:35:11;41.40;;;20.77;;
1839;SDS011;920;48.944;9.148;2022-12-18T06:37:38;39.17;;;21.00;;
1839;SDS011;920;48.944;9.148;2022-12-18T06:40:05;39.77;;;21.27;;
1839;SDS011;920;48.944;9.148;2022-12-18T06:42:33;43.93;;;22.73;;
1839;SDS011;920;48.944;9.148;2022-12-18T06:44:59;40.40;;;20.80;;
1839;SDS011;920;48.944;9.148;2022-12-18T06:47:26;39.23;;;22.53;;
1839;SDS011;920;48.944;9.148;2022-12-18T06:49:53;37.03;;;20.60;;
1839;SDS011;920;48.944;9.148;2022-12-18T06:52:20;40.00;;;20.67;;
1839;SDS011;920;48.944;9.148;2022-12-18T06:54:47;38.43;;;21.33;;
1839;SDS011;920;48.944;9.148;2022-12-18T06:57:14;40.10;;;22.73;;
1839;SDS011;920;48.944;9.148;2022-12-18T06:59:40;33.90;;;19.07;;
1839;SDS011;920;48.944;9.148;2022-12-18T07:02:10;39.90;;;20.93;;
1839;SDS011;920;48.944;9.148;2022-12-18T07:04:37;37.40;;;19.37;;
1839;SDS011;920;48.944;9.148;2022-12-18T07:07:03;33.83;;;19.10;;
1839;SDS011;920;48.944;9.148;2022-12-18T07:09:31;34.50;;;19.20;;
1839;SDS011;920;48.944;9.148;2022-12-18T07:11:58;38.80;;;19.77;;
1839;SDS011;920;48.944;9.148;2022-12-18T07:14:24;39.70;;;21.00;;
1839;SDS011;920;48.944;9.148;2022-12-18T07:16:51;39.83;;;20.07;;
1839;SDS011;920;48.944;9.148;2022-12-18T07:19:18;34.97;;;19.60;;
1839;SDS011;920;48.944;9.148;2022-12-18T07:21:44;40.97;;;21.17;;
1839;SDS011;920;48.944;9.148;2022-12-18T07:24:11;37.10;;;20.17;;
1839;SDS011;920;48.944;9.148;2022-12-18T07:26:39;34.07;;;19.43;;
1839;SDS011;920;48.944;9.148;2022-12-18T07:29:06;38.17;;;19.60;;
1839;SDS011;920;48.944;9.148;2022-12-18T07:31:32;39.37;;;19.60;;
1839;SDS011;920;48.944;9.148;2022-12-18T07:33:59;32.83;;;17.30;;
1839;SDS011;920;48.944;9.148;2022-12-18T07:36:26;39.63;;;20.13;;
1839;SDS011;920;48.944;9.148;2022-12-18T07:38:53;37.90;;;19.37;;
1839;SDS011;920;48.944;9.148;2022-12-18T07:41:20;38.87;;;21.37;;
1839;SDS011;920;48.944;9.148;2022-12-18T07:43:51;37.83;;;19.77;;
1839;SDS011;920;48.944;9.148;2022-12-18T07:46:18;32.87;;;17.83;;
1839;SDS011;920;48.944;9.148;2022-12-18T07:48:50;37.67;;;18.97;;
1839;SDS011;920;48.944;9.148;2022-12-18T07:51:17;40.20;;;21.47;;
1839;SDS011;920;48.944;9.148;2022-12-18T07:53:44;43.17;;;21.60;;
1839;SDS011;920;48.944;9.148;2022-12-18T07:56:13;42.47;;;22.33;;
1839;SDS011;920;48.944;9.148;2022-12-18T07:58:40;44.03;;;21.53;;
1839;SDS011;920;48.944;9.148;2022-12-18T08:01:09;42.97;;;21.60;;
1839;SDS011;920;48.944;9.148;2022-12-18T08:03:37;37.00;;;21.43;;
1839;SDS011;920;48.944;9.148;2022-12-18T08:06:08;44.30;;;21.07;;
1839;SDS011;920;48.944;9.148;2022-12-18T08:08:35;43.97;;;23.47;;
1839;SDS011;920;48.944;9.148;2022-12-18T08:11:04;39.20;;;20.50;;
1839;SDS011;920;48.944;9.148;2022-12-18T08:13:33;43.00;;;21.67;;
1839;SDS011;920;48.944;9.148;2022-12-18T08:16:01;41.10;;;22.27;;
1839;SDS011;920;48.944;9.148;2022-12-18T08:18:33;40.73;;;21.30;;
1839;SDS011;920;48.944;9.148;2022-12-18T08:21:07;45.03;;;22.93;;
1839;SDS011;920;48.944;9.148;2022-12-18T08:23:34;47.57;;;22.70;;
1839;SDS011;920;48.944;9.148;2022-12-18T08:26:01;41.87;;;22.43;;
1839;SDS011;920;48.944;9.148;2022-12-18T08:28:30;50.17;;;24.30;;
1839;SDS011;920;48.944;9.148;2022-12-18T08:30:57;46.50;;;22.47;;
1839;SDS011;920;48.944;9.148;2022-12-18T08:33:24;45.07;;;24.30;;
1839;SDS011;920;48.944;9.148;2022-12-18T08:35:52;36.53;;;20.50;;
1839;SDS011;920;48.944;9.148;2022-12-18T08:38:19;44.67;;;22.20;;
1839;SDS011;920;48.944;9.148;2022-12-18T08:40:48;42.73;;;21.07;;
1839;SDS011;920;48.944;9.148;2022-12-18T08:43:14;37.73;;;20.43;;
1839;SDS011;920;48.944;9.148;2022-12-18T08:46:03;37.13;;;19.33;;
1839;SDS011;920;48.944;9.148;2022-12-18T08:48:30;40.60;;;21.43;;
1839;SDS011;920;48.944;9.148;2022-12-18T08:50:58;39.53;;;21.03;;
1839;SDS011;920;48.944;9.148;2022-12-18T08:53:26;35.20;;;20.83;;
1839;SDS011;920;48.944;9.148;2022-12-18T08:55:52;40.10;;;21.63;;
1839;SDS011;920;48.944;9.148;2022-12-18T08:58:19;46.17;;;23.83;;
1839;SDS011;920;48.944;9.148;2022-12-18T09:00:46;40.40;;;21.20;;
1839;SDS011;920;48.944;9.148;2022-12-18T09:03:15;42.60;;;22.70;;
1839;SDS011;920;48.944;9.148;2022-12-18T09:05:43;44.77;;;22.10;;
1839;SDS011;920;48.944;9.148;2022-12-18T09:08:13;40.97;;;24.20;;
1839;SDS011;920;48.944;9.148;2022-12-18T09:10:41;44.40;;;23.10;;
1839;SDS011;920;48.944;9.148;2022-12-18T09:13:08;39.43;;;21.67;;
1839;SDS011;920;48.944;9.148;2022-12-18T09:15:39;46.03;;;24.43;;
1839;SDS011;920;48.944;9.148;2022-12-18T09:18:07;43.73;;;23.60;;
1839;SDS011;920;48.944;9.148;2022-12-18T09:20:34;43.50;;;22.90;;
1839;SDS011;920;48.944;9.148;2022-12-18T09:23:00;46.90;;;23.23;;
1839;SDS011;920;48.944;9.148;2022-12-18T09:25:29;45.47;;;23.10;;
1839;SDS011;920;48.944;9.148;2022-12-18T09:27:58;46.43;;;24.17;;
1839;SDS011;920;48.944;9.148;2022-12-18T09:30:25;47.17;;;25.30;;
1839;SDS011;920;48.944;9.148;2022-12-18T09:32:51;54.63;;;27.47;;
1839;SDS011;920;48.944;9.148;2022-12-18T09:35:18;51.07;;;24.97;;
1839;SDS011;920;48.944;9.148;2022-12-18T09:37:44;44.00;;;23.00;;
1839;SDS011;920;48.944;9.148;2022-12-18T09:40:13;51.83;;;26.53;;
1839;SDS011;920;48.944;9.148;2022-12-18T09:42:42;51.10;;;25.60;;
1839;SDS011;920;48.944;9.148;2022-12-18T09:45:12;42.87;;;23.43;;
1839;SDS011;920;48.944;9.148;2022-12-18T09:47:40;48.87;;;24.60;;
1839;SDS011;920;48.944;9.148;2022-12-18T09:50:15;47.50;;;25.60;;
1839;SDS011;920;48.944;9.148;2022-12-18T09:52:47;50.90;;;25.90;;
1839;SDS011;920;48.944;9.148;2022-12-18T09:55:19;40.47;;;22.33;;
1839;SDS011;920;48.944;9.148;2022-12-18T09:57:52;37.97;;;21.00;;
1839;SDS011;920;48.944;9.148;2022-12-18T10:00:22;45.57;;;21.13;;
1839;SDS011;920;48.944;9.148;2022-12-18T10:02:50;39.77;;;21.00;;
1839;SDS011;920;48.944;9.148;2022-12-18T10:05:20;39.20;;;20.63;;
1839;SDS011;920;48.944;9.148;2022-12-18T10:07:53;39.00;;;21.17;;
1839;SDS011;920;48.944;9.148;2022-12-18T10:10:27;45.20;;;23.70;;
1839;SDS011;920;48.944;9.148;2022-12-18T10:13:02;37.83;;;20.27;;
1839;SDS011;920;48.944;9.148;2022-12-18T10:15:34;38.23;;;20.30;;
1839;SDS011;920;48.944;9.148;2022-12-18T10:18:06;39.00;;;21.33;;
1839;SDS011;920;48.944;9.148;2022-12-18T10:20:41;36.90;;;20.83;;
1839;SDS011;920;48.944;9.148;2022-12-18T10:23:11;37.80;;;19.97;;
1839;SDS011;920;48.944;9.148;2022-12-18T10:25:50;39.53;;;20.80;;
1839;SDS011;920;48.944;9.148;2022-12-18T10:28:21;35.87;;;19.87;;
1839;SDS011;920;48.944;9.148;2022-12-18T10:30:48;37.50;;;20.93;;
1839;SDS011;920;48.944;9.148;2022-12-18T10:33:16;37.57;;;20.10;;
1839;SDS011;920;48.944;9.148;2022-12-18T10:35:43;36.20;;;20.17;;
1839;SDS011;920;48.944;9.148;2022-12-18T10:38:20;39.23;;;20.67;;
1839;SDS011;920;48.944;9.148;2022-12-18T10:40:49;41.43;;;20.03;;
1839;SDS011;920;48.944;9.148;2022-12-18T10:43:24;41.37;;;21.63;;
1839;SDS011;920;48.944;9.148;2022-12-18T10:46:08;38.43;;;22.00;;
1839;SDS011;920;48.944;9.148;2022-12-18T10:48:46;36.90;;;17.53;;
1839;SDS011;920;48.944;9.148;2022-12-18T10:51:25;39.40;;;20.57;;
1839;SDS011;920;48.944;9.148;2022-12-18T10:53:55;41.70;;;21.83;;
1839;SDS011;920;48.944;9.148;2022-12-18T10:56:23;42.70;;;22.33;;
1839;SDS011;920;48.944;9.148;2022-12-18T10:58:56;53.17;;;26.40;;
1839;SDS011;920;48.944;9.148;2022-12-18T11:01:24;47.30;;;22.93;;
1839;SDS011;920;48.944;9.148;2022-12-18T11:03:59;44.27;;;24.00;;
1839;SDS011;920;48.944;9.148;2022-12-18T11:06:27;48.80;;;26.10;;
1839;SDS011;920;48.944;9.148;2022-12-18T11:08:57;48.80;;;25.20;;
1839;SDS011;920;48.944;9.148;2022-12-18T11:11:25;52.53;;;25.57;;
1839;SDS011;920;48.944;9.148;2022-12-18T11:13:58;44.90;;;24.10;;
1839;SDS011;920;48.944;9.148;2022-12-18T11:16:29;46.43;;;26.13;;
1839;SDS011;920;48.944;9.148;2022-12-18T11:19:22;46.77;;;23.60;;
1839;SDS011;920;48.944;9.148;2022-12-18T11:21:52;39.83;;;21.40;;
1839;SDS011;920;48.944;9.148;2022-12-18T11:24:20;43.77;;;24.50;;
1839;SDS011;920;48.944;9.148;2022-12-18T11:26:50;48.33;;;25.73;;
1839;SDS011;920;48.944;9.148;2022-12-18T11:29:20;47.43;;;23.63;;
1839;SDS011;920;48.944;9.148;2022-12-18T11:34:48;38.10;;;20.53;;
1839;SDS011;920;48.944;9.148;2022-12-18T11:37:17;42.50;;;21.27;;
1839;SDS011;920;48.944;9.148;2022-12-18T11:39:46;40.77;;;21.43;;
1839;SDS011;920;48.944;9.148;2022-12-18T11:42:17;40.83;;;22.17;;
1839;SDS011;920;48.944;9.148;2022-12-18T11:44:48;42.13;;;22.10;;
1839;SDS011;920;48.944;9.148;2022-12-18T11:47:21;44.50;;;24.37;;
1839;SDS011;920;48.944;9.148;2022-12-18T11:49:56;43.10;;;22.33;;
1839;SDS011;920;48.944;9.148;2022-12-18T11:52:27;37.40;;;20.67;;
1839;SDS011;920;48.944;9.148;2022-12-18T11:54:58;39.63;;;21.73;;
1839;SDS011;920;48.944;9.148;2022-12-18T11:57:30;40.70;;;21.77;;
1839;SDS011;920;48.944;9.148;2022-12-18T12:00:09;41.57;;;22.77;;
1839;SDS011;920;48.944;9.148;2022-12-18T12:02:42;47.20;;;24.03;;
1839;SDS011;920;48.944;9.148;2022-12-18T12:05:28;39.63;;;23.47;;
1839;SDS011;920;48.944;9.148;2022-12-18T12:08:05;39.63;;;21.00;;
1839;SDS011;920;48.944;9.148;2022-12-18T12:10:40;45.07;;;23.30;;
1839;SDS011;920;48.944;9.148;2022-12-18T12:13:21;41.50;;;22.60;;
1839;SDS011;920;48.944;9.148;2022-12-18T12:15:57;42.87;;;20.80;;
1839;SDS011;920;48.944;9.148;2022-12-18T12:18:32;43.63;;;21.50;;
1839;SDS011;920;48.944;9.148;2022-12-18T12:21:09;43.83;;;22.33;;
1839;SDS011;920;48.944;9.148;2022-12-18T12:23:41;45.50;;;24.77;;
1839;SDS011;920;48.944;9.148;2022-12-18T12:26:12;39.77;;;20.90;;
1839;SDS011;920;48.944;9.148;2022-12-18T12:28:46;45.83;;;22.47;;
1839;SDS011;920;48.944;9.148;2022-12-18T12:31:22;44.97;;;22.13;;
1839;SDS011;920;48.944;9.148;2022-12-18T12:34:04;38.63;;;20.20;;
1839;SDS011;920;48.944;9.148;2022-12-18T12:36:40;42.90;;;21.40;;
1839;SDS011;920;48.944;9.148;2022-12-18T12:39:14;43.63;;;22.80;;
1839;SDS011;920;48.944;9.148;2022-12-18T12:41:46;38.00;;;22.23;;
1839;SDS011;920;48.944;9.148;2022-12-18T12:44:30;44.97;;;21.83;;
1839;SDS011;920;48.944;9.148;2022-12-18T12:47:07;39.53;;;22.30;;
1839;SDS011;920;48.944;9.148;2022-12-18T12:49:37;41.80;;;21.80;;
1839;SDS011;920;48.944;9.148;2022-12-18T12:52:06;39.43;;;21.17;;
1839;SDS011;920;48.944;9.148;2022-12-18T12:54:34;42.17;;;21.97;;
1839;SDS011;920;48.944;9.148;2022-12-18T12:57:05;36.53;;;21.20;;
1839;SDS011;920;48.944;9.148;2022-12-18T12:59:37;39.47;;;21.27;;
1839;SDS011;920;48.944;9.148;2022-12-18T13:02:14;38.53;;;20.50;;
1839;SDS011;920;48.944;9.148;2022-12-18T13:04:45;32.43;;;18.17;;
1839;SDS011;920;48.944;9.148;2022-12-18T13:07:17;40.43;;;19.27;;
1839;SDS011;920;48.944;9.148;2022-12-18T13:12:50;36.80;;;19.17;;
1839;SDS011;920;48.944;9.148;2022-12-18T13:15:25;33.47;;;17.70;;
1839;SDS011;920;48.944;9.148;2022-12-18T13:18:06;34.07;;;17.90;;
1839;SDS011;920;48.944;9.148;2022-12-18T13:20:39;32.50;;;18.57;;
1839;SDS011;920;48.944;9.148;2022-12-18T13:23:26;33.27;;;17.57;;
1839;SDS011;920;48.944;9.148;2022-12-18T13:25:55;32.43;;;17.80;;
1839;SDS011;920;48.944;9.148;2022-12-18T13:34:25;38.10;;;19.23;;
1839;SDS011;920;48.944;9.148;2022-12-18T13:36:54;31.77;;;17.87;;
1839;SDS011;920;48.944;9.148;2022-12-18T13:39:23;34.77;;;18.47;;
1839;SDS011;920;48.944;9.148;2022-12-18T13:41:52;38.97;;;20.90;;
1839;SDS011;920;48.944;9.148;2022-12-18T13:44:25;35.10;;;17.80;;
1839;SDS011;920;48.944;9.148;2022-12-18T13:46:55;33.07;;;17.73;;
1839;SDS011;920;48.944;9.148;2022-12-18T13:49:23;32.73;;;17.73;;
1839;SDS011;920;48.944;9.148;2022-12-18T13:51:53;40.77;;;20.80;;
1839;SDS011;920;48.944;9.148;2022-12-18T13:54:22;37.30;;;18.20;;
1839;SDS011;920;48.944;9.148;2022-12-18T13:56:52;36.53;;;20.33;;
1839;SDS011;920;48.944;9.148;2022-12-18T13:59:19;40.93;;;21.00;;
1839;SDS011;920;48.944;9.148;2022-12-18T14:01:49;33.17;;;18.57;;
1839;SDS011;920;48.944;9.148;2022-12-18T14:04:19;33.07;;;18.60;;
1839;SDS011;920;48.944;9.148;2022-12-18T14:06:49;36.70;;;19.20;;
1839;SDS011;920;48.944;9.148;2022-12-18T14:09:18;36.57;;;19.47;;
1839;SDS011;920;48.944;9.148;2022-12-18T14:11:52;35.97;;;20.10;;
1839;SDS011;920;48.944;9.148;2022-12-18T14:14:41;37.10;;;20.70;;
1839;SDS011;920;48.944;9.148;2022-12-18T14:17:09;39.57;;;22.67;;
1839;SDS011;920;48.944;9.148;2022-12-18T14:19:36;40.43;;;23.53;;
1839;SDS011;920;48.944;9.148;2022-12-18T14:22:04;43.90;;;24.03;;
1839;SDS011;920;48.944;9.148;2022-12-18T14:24:31;40.10;;;22.63;;
1839;SDS011;920;48.944;9.148;2022-12-18T14:26:58;43.93;;;22.13;;
1839;SDS011;920;48.944;9.148;2022-12-18T14:29:39;40.07;;;22.20;;
1839;SDS011;920;48.944;9.148;2022-12-18T14:32:10;36.03;;;20.80;;
1839;SDS011;920;48.944;9.148;2022-12-18T14:34:39;37.47;;;20.80;;
1839;SDS011;920;48.944;9.148;2022-12-18T14:37:07;42.90;;;22.40;;
1839;SDS011;920;48.944;9.148;2022-12-18T14:39:36;41.30;;;22.13;;
1839;SDS011;920;48.944;9.148;2022-12-18T14:42:02;40.37;;;22.97;;
1839;SDS011;920;48.944;9.148;2022-12-18T14:44:29;37.37;;;21.90;;
1839;SDS011;920;48.944;9.148;2022-12-18T14:46:56;37.23;;;20.73;;
1839;SDS011;920;48.944;9.148;2022-12-18T14:49:23;33.60;;;19.10;;
1839;SDS011;920;48.944;9.148;2022-12-18T14:51:53;34.50;;;19.17;;
1839;SDS011;920;48.944;9.148;2022-12-18T14:54:22;37.30;;;19.60;;
1839;SDS011;920;48.944;9.148;2022-12-18T14:56:54;32.43;;;18.60;;
1839;SDS011;920;48.944;9.148;2022-12-18T14:59:25;35.40;;;19.77;;
1839;SDS011;920;48.944;9.148;2022-12-18T15:01:56;38.93;;;18.40;;
1839;SDS011;920;48.944;9.148;2022-12-18T15:04:31;41.37;;;21.13;;
1839;SDS011;920;48.944;9.148;2022-12-18T15:07:04;30.67;;;16.80;;
1839;SDS011;920;48.944;9.148;2022-12-18T15:09:35;34.47;;;18.30;;
1839;SDS011;920;48.944;9.148;2022-12-18T15:12:03;32.43;;;18.00;;
1839;SDS011;920;48.944;9.148;2022-12-18T15:14:32;34.83;;;19.37;;
1839;SDS011;920;48.944;9.148;2022-12-18T15:17:01;34.97;;;19.70;;
1839;SDS011;920;48.944;9.148;2022-12-18T15:19:32;37.23;;;20.10;;
1839;SDS011;920;48.944;9.148;2022-12-18T15:22:01;36.03;;;20.07;;
1839;SDS011;920;48.944;9.148;2022-12-18T15:24:29;35.13;;;19.70;;
1839;SDS011;920;48.944;9.148;2022-12-18T15:26:58;31.90;;;18.90;;
1839;SDS011;920;48.944;9.148;2022-12-18T15:29:25;33.80;;;18.40;;